sensor_id;sensor_type;location;lat;lon;timestamp;P1;durP1;ratioP1;P2;durP2;ratioP2
52858;SDS011;38721;53.098;6.596;2022-08-21T00:02:17;9.73;;;4.20;;
52858;SDS011;38721;53.098;6.596;2022-08-21T00:04:45;7.38;;;3.75;;
52858;SDS011;38721;53.098;6.596;2022-08-21T00:07:11;8.10;;;3.80;;
52858;SDS011;38721;53.098;6.596;2022-08-21T00:09:37;7.95;;;4.13;;
52858;SDS011;38721;53.098;6.596;2022-08-21T00:12:04;10.15;;;4.10;;
52858;SDS011;38721;53.098;6.596;2022-08-21T00:14:31;8.30;;;4.30;;
52858;SDS011;38721;53.098;6.596;2022-08-21T00:16:56;7.38;;;4.00;;
52858;SDS011;38721;53.098;6.596;2022-08-21T00:19:23;10.15;;;4.35;;
52858;SDS011;38721;53.098;6.596;2022-08-21T00:21:52;10.15;;;4.00;;
52858;SDS011;38721;53.098;6.596;2022-08-21T00:24:18;7.72;;;3.80;;
52858;SDS011;38721;53.098;6.596;2022-08-21T00:26:48;7.40;;;4.38;;
52858;SDS011;38721;53.098;6.596;2022-08-21T00:29:14;10.65;;;4.03;;
52858;SDS011;38721;53.098;6.596;2022-08-21T00:31:40;8.27;;;3.85;;
52858;SDS011;38721;53.098;6.596;2022-08-21T00:34:07;7.35;;;3.88;;
52858;SDS011;38721;53.098;6.596;2022-08-21T00:36:34;6.72;;;3.75;;
52858;SDS011;38721;53.098;6.596;2022-08-21T00:39:05;9.88;;;4.20;;
52858;SDS011;38721;53.098;6.596;2022-08-21T00:41:32;8.65;;;4.00;;
52858;SDS011;38721;53.098;6.596;2022-08-21T00:43:58;7.82;;;3.92;;
52858;SDS011;38721;53.098;6.596;2022-08-21T00:46:24;5.93;;;3.70;;
52858;SDS011;38721;53.098;6.596;2022-08-21T00:48:50;5.97;;;3.20;;
52858;SDS011;38721;53.098;6.596;2022-08-21T00:51:34;6.25;;;3.47;;
52858;SDS011;38721;53.098;6.596;2022-08-21T00:54:10;8.05;;;3.58;;
52858;SDS011;38721;53.098;6.596;2022-08-21T00:56:40;7.13;;;4.03;;
52858;SDS011;38721;53.098;6.596;2022-08-21T00:59:06;8.82;;;4.00;;
52858;SDS011;38721;53.098;6.596;2022-08-21T01:01:32;10.00;;;4.40;;
52858;SDS011;38721;53.098;6.596;2022-08-21T01:03:59;8.00;;;4.30;;
52858;SDS011;38721;53.098;6.596;2022-08-21T01:06:25;6.75;;;4.00;;
52858;SDS011;38721;53.098;6.596;2022-08-21T01:08:51;6.30;;;3.83;;
52858;SDS011;38721;53.098;6.596;2022-08-21T01:11:17;8.45;;;3.90;;
52858;SDS011;38721;53.098;6.596;2022-08-21T01:13:43;8.07;;;4.50;;
52858;SDS011;38721;53.098;6.596;2022-08-21T01:16:10;7.88;;;4.38;;
52858;SDS011;38721;53.098;6.596;2022-08-21T01:18:36;6.70;;;4.00;;
52858;SDS011;38721;53.098;6.596;2022-08-21T01:21:03;8.43;;;4.38;;
52858;SDS011;38721;53.098;6.596;2022-08-21T01:23:35;7.68;;;4.07;;
52858;SDS011;38721;53.098;6.596;2022-08-21T01:26:03;6.75;;;3.92;;
52858;SDS011;38721;53.098;6.596;2022-08-21T01:28:30;8.27;;;4.68;;
52858;SDS011;38721;53.098;6.596;2022-08-21T01:31:02;7.55;;;4.90;;
52858;SDS011;38721;53.098;6.596;2022-08-21T01:33:32;7.97;;;4.68;;
52858;SDS011;38721;53.098;6.596;2022-08-21T01:35:58;7.35;;;4.70;;
52858;SDS011;38721;53.098;6.596;2022-08-21T01:38:24;8.35;;;5.00;;
52858;SDS011;38721;53.098;6.596;2022-08-21T01:40:50;6.85;;;4.60;;
52858;SDS011;38721;53.098;6.596;2022-08-21T01:43:15;10.85;;;5.43;;
52858;SDS011;38721;53.098;6.596;2022-08-21T01:45:41;8.48;;;5.47;;
52858;SDS011;38721;53.098;6.596;2022-08-21T01:48:07;9.43;;;5.97;;
52858;SDS011;38721;53.098;6.596;2022-08-21T01:50:32;9.35;;;5.82;;
52858;SDS011;38721;53.098;6.596;2022-08-21T01:52:58;11.82;;;6.50;;
52858;SDS011;38721;53.098;6.596;2022-08-21T01:55:24;10.43;;;6.63;;
52858;SDS011;38721;53.098;6.596;2022-08-21T01:57:49;9.60;;;5.95;;
52858;SDS011;38721;53.098;6.596;2022-08-21T02:00:16;9.45;;;6.32;;
52858;SDS011;38721;53.098;6.596;2022-08-21T02:02:44;12.25;;;6.60;;
52858;SDS011;38721;53.098;6.596;2022-08-21T02:05:10;10.88;;;5.88;;
52858;SDS011;38721;53.098;6.596;2022-08-21T02:07:39;9.05;;;6.40;;
52858;SDS011;38721;53.098;6.596;2022-08-21T02:10:07;12.02;;;6.68;;
52858;SDS011;38721;53.098;6.596;2022-08-21T02:12:34;11.85;;;6.45;;
52858;SDS011;38721;53.098;6.596;2022-08-21T02:15:00;9.38;;;6.47;;
52858;SDS011;38721;53.098;6.596;2022-08-21T02:17:37;12.45;;;5.88;;
52858;SDS011;38721;53.098;6.596;2022-08-21T02:20:08;11.38;;;6.32;;
52858;SDS011;38721;53.098;6.596;2022-08-21T02:22:36;10.93;;;6.57;;
52858;SDS011;38721;53.098;6.596;2022-08-21T02:25:02;9.60;;;6.85;;
52858;SDS011;38721;53.098;6.596;2022-08-21T02:27:28;10.38;;;7.35;;
52858;SDS011;38721;53.098;6.596;2022-08-21T02:29:55;10.88;;;7.72;;
52858;SDS011;38721;53.098;6.596;2022-08-21T02:32:25;9.68;;;6.80;;
52858;SDS011;38721;53.098;6.596;2022-08-21T02:34:50;10.38;;;6.88;;
52858;SDS011;38721;53.098;6.596;2022-08-21T02:37:17;10.32;;;6.80;;
52858;SDS011;38721;53.098;6.596;2022-08-21T02:39:42;12.50;;;8.10;;
52858;SDS011;38721;53.098;6.596;2022-08-21T02:42:08;15.13;;;7.50;;
52858;SDS011;38721;53.098;6.596;2022-08-21T02:44:34;9.95;;;7.28;;
52858;SDS011;38721;53.098;6.596;2022-08-21T02:46:59;10.98;;;7.97;;
52858;SDS011;38721;53.098;6.596;2022-08-21T02:49:25;14.70;;;8.02;;
52858;SDS011;38721;53.098;6.596;2022-08-21T02:51:51;15.15;;;8.43;;
52858;SDS011;38721;53.098;6.596;2022-08-21T02:54:16;12.55;;;8.45;;
52858;SDS011;38721;53.098;6.596;2022-08-21T02:56:42;13.52;;;7.95;;
52858;SDS011;38721;53.098;6.596;2022-08-21T02:59:08;10.05;;;7.63;;
52858;SDS011;38721;53.098;6.596;2022-08-21T03:01:33;11.70;;;7.57;;
52858;SDS011;38721;53.098;6.596;2022-08-21T03:03:59;9.93;;;7.50;;
52858;SDS011;38721;53.098;6.596;2022-08-21T03:06:25;13.45;;;8.90;;
52858;SDS011;38721;53.098;6.596;2022-08-21T03:08:50;13.95;;;8.55;;
52858;SDS011;38721;53.098;6.596;2022-08-21T03:11:16;14.15;;;8.80;;
52858;SDS011;38721;53.098;6.596;2022-08-21T03:13:46;13.80;;;8.73;;
52858;SDS011;38721;53.098;6.596;2022-08-21T03:16:11;13.60;;;8.90;;
52858;SDS011;38721;53.098;6.596;2022-08-21T03:18:37;15.18;;;9.05;;
52858;SDS011;38721;53.098;6.596;2022-08-21T03:21:03;16.48;;;8.65;;
52858;SDS011;38721;53.098;6.596;2022-08-21T03:23:31;13.90;;;9.00;;
52858;SDS011;38721;53.098;6.596;2022-08-21T03:25:57;12.93;;;8.70;;
52858;SDS011;38721;53.098;6.596;2022-08-21T03:28:23;13.75;;;9.13;;
52858;SDS011;38721;53.098;6.596;2022-08-21T03:30:49;12.82;;;9.23;;
52858;SDS011;38721;53.098;6.596;2022-08-21T03:33:17;16.05;;;8.98;;
52858;SDS011;38721;53.098;6.596;2022-08-21T03:35:44;14.77;;;8.65;;
52858;SDS011;38721;53.098;6.596;2022-08-21T03:38:21;11.95;;;8.98;;
52858;SDS011;38721;53.098;6.596;2022-08-21T03:40:47;15.00;;;9.00;;
52858;SDS011;38721;53.098;6.596;2022-08-21T03:43:15;12.93;;;8.57;;
52858;SDS011;38721;53.098;6.596;2022-08-21T03:45:44;13.18;;;8.90;;
52858;SDS011;38721;53.098;6.596;2022-08-21T03:48:11;12.15;;;8.77;;
52858;SDS011;38721;53.098;6.596;2022-08-21T03:53:21;16.58;;;9.05;;
52858;SDS011;38721;53.098;6.596;2022-08-21T03:55:49;13.48;;;9.15;;
52858;SDS011;38721;53.098;6.596;2022-08-21T03:58:18;12.75;;;9.02;;
52858;SDS011;38721;53.098;6.596;2022-08-21T04:00:50;12.20;;;8.85;;
52858;SDS011;38721;53.098;6.596;2022-08-21T04:03:19;14.18;;;8.77;;
52858;SDS011;38721;53.098;6.596;2022-08-21T04:05:48;18.38;;;9.50;;
52858;SDS011;38721;53.098;6.596;2022-08-21T04:08:14;14.35;;;8.80;;
52858;SDS011;38721;53.098;6.596;2022-08-21T04:10:45;11.98;;;8.60;;
52858;SDS011;38721;53.098;6.596;2022-08-21T04:13:13;13.05;;;8.52;;
52858;SDS011;38721;53.098;6.596;2022-08-21T04:15:42;13.30;;;8.45;;
52858;SDS011;38721;53.098;6.596;2022-08-21T04:18:08;16.65;;;8.27;;
52858;SDS011;38721;53.098;6.596;2022-08-21T04:20:34;13.27;;;7.75;;
52858;SDS011;38721;53.098;6.596;2022-08-21T04:23:02;12.65;;;7.93;;
52858;SDS011;38721;53.098;6.596;2022-08-21T04:25:28;11.65;;;7.82;;
52858;SDS011;38721;53.098;6.596;2022-08-21T04:27:54;12.88;;;8.18;;
52858;SDS011;38721;53.098;6.596;2022-08-21T04:30:23;13.18;;;8.55;;
52858;SDS011;38721;53.098;6.596;2022-08-21T04:32:52;13.85;;;8.70;;
52858;SDS011;38721;53.098;6.596;2022-08-21T04:35:19;13.90;;;8.55;;
52858;SDS011;38721;53.098;6.596;2022-08-21T04:37:47;11.88;;;7.82;;
52858;SDS011;38721;53.098;6.596;2022-08-21T04:40:14;11.73;;;7.70;;
52858;SDS011;38721;53.098;6.596;2022-08-21T04:42:44;14.75;;;8.13;;
52858;SDS011;38721;53.098;6.596;2022-08-21T04:45:16;12.75;;;7.93;;
52858;SDS011;38721;53.098;6.596;2022-08-21T04:47:46;18.02;;;8.27;;
52858;SDS011;38721;53.098;6.596;2022-08-21T04:50:16;10.48;;;6.78;;
52858;SDS011;38721;53.098;6.596;2022-08-21T04:52:42;11.15;;;7.78;;
52858;SDS011;38721;53.098;6.596;2022-08-21T04:55:08;12.20;;;7.35;;
52858;SDS011;38721;53.098;6.596;2022-08-21T04:57:34;12.68;;;6.97;;
52858;SDS011;38721;53.098;6.596;2022-08-21T05:00:01;10.35;;;6.78;;
52858;SDS011;38721;53.098;6.596;2022-08-21T05:02:29;10.60;;;6.80;;
52858;SDS011;38721;53.098;6.596;2022-08-21T05:04:58;13.32;;;7.38;;
52858;SDS011;38721;53.098;6.596;2022-08-21T05:07:25;11.52;;;7.15;;
52858;SDS011;38721;53.098;6.596;2022-08-21T05:09:53;12.45;;;7.10;;
52858;SDS011;38721;53.098;6.596;2022-08-21T05:12:19;10.85;;;6.78;;
52858;SDS011;38721;53.098;6.596;2022-08-21T05:14:45;12.75;;;7.13;;
52858;SDS011;38721;53.098;6.596;2022-08-21T05:17:12;12.02;;;7.22;;
52858;SDS011;38721;53.098;6.596;2022-08-21T05:19:37;13.02;;;7.07;;
52858;SDS011;38721;53.098;6.596;2022-08-21T05:22:03;9.38;;;6.75;;
52858;SDS011;38721;53.098;6.596;2022-08-21T05:24:29;11.88;;;7.45;;
52858;SDS011;38721;53.098;6.596;2022-08-21T05:26:55;13.73;;;6.65;;
52858;SDS011;38721;53.098;6.596;2022-08-21T05:29:21;14.98;;;6.80;;
52858;SDS011;38721;53.098;6.596;2022-08-21T05:31:47;15.43;;;7.22;;
52858;SDS011;38721;53.098;6.596;2022-08-21T05:34:14;11.48;;;6.22;;
52858;SDS011;38721;53.098;6.596;2022-08-21T05:36:44;10.18;;;7.00;;
52858;SDS011;38721;53.098;6.596;2022-08-21T05:39:10;11.77;;;6.70;;
52858;SDS011;38721;53.098;6.596;2022-08-21T05:41:35;13.20;;;6.50;;
52858;SDS011;38721;53.098;6.596;2022-08-21T05:44:01;8.05;;;5.90;;
52858;SDS011;38721;53.098;6.596;2022-08-21T05:46:27;11.68;;;6.07;;
52858;SDS011;38721;53.098;6.596;2022-08-21T05:48:53;9.88;;;5.63;;
52858;SDS011;38721;53.098;6.596;2022-08-21T05:51:19;14.20;;;6.00;;
52858;SDS011;38721;53.098;6.596;2022-08-21T05:53:45;10.80;;;5.63;;
52858;SDS011;38721;53.098;6.596;2022-08-21T05:56:11;10.85;;;5.85;;
52858;SDS011;38721;53.098;6.596;2022-08-21T05:58:37;8.63;;;5.40;;
52858;SDS011;38721;53.098;6.596;2022-08-21T06:01:04;12.70;;;5.53;;
52858;SDS011;38721;53.098;6.596;2022-08-21T06:03:31;10.60;;;5.63;;
52858;SDS011;38721;53.098;6.596;2022-08-21T06:06:00;9.02;;;5.13;;
52858;SDS011;38721;53.098;6.596;2022-08-21T06:08:26;11.68;;;5.15;;
52858;SDS011;38721;53.098;6.596;2022-08-21T06:10:53;11.18;;;5.60;;
52858;SDS011;38721;53.098;6.596;2022-08-21T06:13:21;16.60;;;5.63;;
52858;SDS011;38721;53.098;6.596;2022-08-21T06:15:47;12.40;;;5.38;;
52858;SDS011;38721;53.098;6.596;2022-08-21T06:18:13;11.75;;;5.32;;
52858;SDS011;38721;53.098;6.596;2022-08-21T06:20:40;12.57;;;4.82;;
52858;SDS011;38721;53.098;6.596;2022-08-21T06:23:05;13.88;;;5.35;;
52858;SDS011;38721;53.098;6.596;2022-08-21T06:25:32;8.40;;;4.38;;
52858;SDS011;38721;53.098;6.596;2022-08-21T06:28:05;8.05;;;4.75;;
52858;SDS011;38721;53.098;6.596;2022-08-21T06:30:33;9.02;;;4.63;;
52858;SDS011;38721;53.098;6.596;2022-08-21T06:33:01;12.73;;;5.18;;
52858;SDS011;38721;53.098;6.596;2022-08-21T06:35:27;7.97;;;4.68;;
52858;SDS011;38721;53.098;6.596;2022-08-21T06:37:54;10.07;;;5.07;;
52858;SDS011;38721;53.098;6.596;2022-08-21T06:40:23;11.10;;;4.78;;
52858;SDS011;38721;53.098;6.596;2022-08-21T06:42:50;10.13;;;5.00;;
52858;SDS011;38721;53.098;6.596;2022-08-21T06:45:15;8.98;;;4.40;;
52858;SDS011;38721;53.098;6.596;2022-08-21T06:47:41;12.30;;;4.28;;
52858;SDS011;38721;53.098;6.596;2022-08-21T06:50:07;11.82;;;4.50;;
52858;SDS011;38721;53.098;6.596;2022-08-21T06:52:34;11.43;;;4.28;;
52858;SDS011;38721;53.098;6.596;2022-08-21T06:55:01;10.00;;;3.90;;
52858;SDS011;38721;53.098;6.596;2022-08-21T06:57:29;10.13;;;4.88;;
52858;SDS011;38721;53.098;6.596;2022-08-21T06:59:54;9.63;;;4.28;;
52858;SDS011;38721;53.098;6.596;2022-08-21T07:02:20;8.13;;;4.40;;
52858;SDS011;38721;53.098;6.596;2022-08-21T07:04:45;9.40;;;3.72;;
52858;SDS011;38721;53.098;6.596;2022-08-21T07:07:11;9.38;;;3.88;;
52858;SDS011;38721;53.098;6.596;2022-08-21T07:09:37;11.07;;;3.67;;
52858;SDS011;38721;53.098;6.596;2022-08-21T07:12:02;9.18;;;4.38;;
52858;SDS011;38721;53.098;6.596;2022-08-21T07:14:28;7.50;;;3.60;;
52858;SDS011;38721;53.098;6.596;2022-08-21T07:16:55;10.50;;;3.78;;
52858;SDS011;38721;53.098;6.596;2022-08-21T07:19:20;10.60;;;3.50;;
52858;SDS011;38721;53.098;6.596;2022-08-21T07:21:46;7.25;;;3.65;;
52858;SDS011;38721;53.098;6.596;2022-08-21T07:24:13;7.43;;;3.20;;
52858;SDS011;38721;53.098;6.596;2022-08-21T07:26:39;12.52;;;3.10;;
52858;SDS011;38721;53.098;6.596;2022-08-21T07:29:05;9.50;;;4.03;;
52858;SDS011;38721;53.098;6.596;2022-08-21T07:31:31;8.40;;;3.13;;
52858;SDS011;38721;53.098;6.596;2022-08-21T07:34:03;6.97;;;2.83;;
52858;SDS011;38721;53.098;6.596;2022-08-21T07:36:28;10.00;;;3.20;;
52858;SDS011;38721;53.098;6.596;2022-08-21T07:38:54;8.25;;;3.33;;
52858;SDS011;38721;53.098;6.596;2022-08-21T07:41:24;12.15;;;3.38;;
52858;SDS011;38721;53.098;6.596;2022-08-21T07:43:53;6.47;;;3.22;;
52858;SDS011;38721;53.098;6.596;2022-08-21T07:46:20;9.55;;;3.28;;
52858;SDS011;38721;53.098;6.596;2022-08-21T07:48:46;9.20;;;3.40;;
52858;SDS011;38721;53.098;6.596;2022-08-21T07:51:12;6.20;;;2.70;;
52858;SDS011;38721;53.098;6.596;2022-08-21T07:53:40;10.80;;;2.95;;
52858;SDS011;38721;53.098;6.596;2022-08-21T07:56:06;9.13;;;3.08;;
52858;SDS011;38721;53.098;6.596;2022-08-21T07:58:33;7.38;;;2.63;;
52858;SDS011;38721;53.098;6.596;2022-08-21T08:00:59;7.22;;;2.70;;
52858;SDS011;38721;53.098;6.596;2022-08-21T08:03:25;9.35;;;2.97;;
52858;SDS011;38721;53.098;6.596;2022-08-21T08:05:51;11.02;;;3.20;;
52858;SDS011;38721;53.098;6.596;2022-08-21T08:08:16;9.23;;;2.90;;
52858;SDS011;38721;53.098;6.596;2022-08-21T08:10:42;6.35;;;2.80;;
52858;SDS011;38721;53.098;6.596;2022-08-21T08:13:09;10.27;;;3.00;;
52858;SDS011;38721;53.098;6.596;2022-08-21T08:15:37;9.57;;;2.28;;
52858;SDS011;38721;53.098;6.596;2022-08-21T08:18:06;5.32;;;2.38;;
52858;SDS011;38721;53.098;6.596;2022-08-21T08:20:31;8.20;;;2.65;;
52858;SDS011;38721;53.098;6.596;2022-08-21T08:22:57;7.72;;;2.28;;
52858;SDS011;38721;53.098;6.596;2022-08-21T08:25:23;7.68;;;2.60;;
52858;SDS011;38721;53.098;6.596;2022-08-21T08:27:50;5.68;;;2.05;;
52858;SDS011;38721;53.098;6.596;2022-08-21T08:30:17;7.80;;;2.55;;
52858;SDS011;38721;53.098;6.596;2022-08-21T08:32:43;6.50;;;2.75;;
52858;SDS011;38721;53.098;6.596;2022-08-21T08:35:10;7.93;;;2.20;;
52858;SDS011;38721;53.098;6.596;2022-08-21T08:37:36;6.28;;;2.50;;
52858;SDS011;38721;53.098;6.596;2022-08-21T08:40:05;8.13;;;2.30;;
52858;SDS011;38721;53.098;6.596;2022-08-21T08:45:08;6.25;;;2.13;;
52858;SDS011;38721;53.098;6.596;2022-08-21T08:47:40;7.07;;;2.08;;
52858;SDS011;38721;53.098;6.596;2022-08-21T08:50:19;9.00;;;1.90;;
52858;SDS011;38721;53.098;6.596;2022-08-21T08:52:49;4.97;;;1.95;;
52858;SDS011;38721;53.098;6.596;2022-08-21T08:55:23;6.75;;;2.13;;
52858;SDS011;38721;53.098;6.596;2022-08-21T08:57:57;7.35;;;2.03;;
52858;SDS011;38721;53.098;6.596;2022-08-21T09:00:23;9.43;;;2.40;;
52858;SDS011;38721;53.098;6.596;2022-08-21T09:02:51;7.50;;;2.20;;
52858;SDS011;38721;53.098;6.596;2022-08-21T09:05:24;6.85;;;2.20;;
52858;SDS011;38721;53.098;6.596;2022-08-21T09:13:50;9.30;;;2.40;;
52858;SDS011;38721;53.098;6.596;2022-08-21T09:19:33;5.25;;;2.30;;
52858;SDS011;38721;53.098;6.596;2022-08-21T09:22:19;5.07;;;1.85;;
52858;SDS011;38721;53.098;6.596;2022-08-21T09:25:09;7.50;;;2.22;;
52858;SDS011;38721;53.098;6.596;2022-08-21T09:27:47;8.13;;;2.40;;
52858;SDS011;38721;53.098;6.596;2022-08-21T09:30:13;7.95;;;3.05;;
52858;SDS011;38721;53.098;6.596;2022-08-21T09:32:40;7.50;;;2.28;;
52858;SDS011;38721;53.098;6.596;2022-08-21T09:40:19;10.68;;;2.80;;
52858;SDS011;38721;53.098;6.596;2022-08-21T09:42:59;8.40;;;2.58;;
52858;SDS011;38721;53.098;6.596;2022-08-21T09:45:47;7.00;;;2.42;;
52858;SDS011;38721;53.098;6.596;2022-08-21T09:50:50;7.47;;;2.47;;
52858;SDS011;38721;53.098;6.596;2022-08-21T09:53:21;8.90;;;2.70;;
52858;SDS011;38721;53.098;6.596;2022-08-21T09:55:54;5.70;;;2.33;;
52858;SDS011;38721;53.098;6.596;2022-08-21T09:58:46;6.13;;;2.47;;
52858;SDS011;38721;53.098;6.596;2022-08-21T10:01:16;5.80;;;2.00;;
52858;SDS011;38721;53.098;6.596;2022-08-21T10:03:42;12.10;;;2.45;;
52858;SDS011;38721;53.098;6.596;2022-08-21T10:06:08;5.95;;;2.45;;
52858;SDS011;38721;53.098;6.596;2022-08-21T10:08:37;8.90;;;2.22;;
52858;SDS011;38721;53.098;6.596;2022-08-21T10:11:05;8.18;;;2.22;;
52858;SDS011;38721;53.098;6.596;2022-08-21T10:14:10;8.15;;;2.50;;
52858;SDS011;38721;53.098;6.596;2022-08-21T10:19:37;5.72;;;2.13;;
52858;SDS011;38721;53.098;6.596;2022-08-21T10:27:37;5.38;;;2.20;;
52858;SDS011;38721;53.098;6.596;2022-08-21T10:30:13;9.02;;;2.70;;
52858;SDS011;38721;53.098;6.596;2022-08-21T10:32:46;5.13;;;2.25;;
52858;SDS011;38721;53.098;6.596;2022-08-21T10:35:22;7.63;;;2.20;;
52858;SDS011;38721;53.098;6.596;2022-08-21T10:49:22;7.32;;;2.00;;
52858;SDS011;38721;53.098;6.596;2022-08-21T10:52:02;8.13;;;1.98;;
52858;SDS011;38721;53.098;6.596;2022-08-21T10:54:41;8.27;;;2.42;;
52858;SDS011;38721;53.098;6.596;2022-08-21T10:57:17;6.18;;;2.00;;
52858;SDS011;38721;53.098;6.596;2022-08-21T11:00:05;8.10;;;2.33;;
52858;SDS011;38721;53.098;6.596;2022-08-21T11:03:12;6.97;;;2.15;;
52858;SDS011;38721;53.098;6.596;2022-08-21T11:08:11;4.78;;;1.60;;
52858;SDS011;38721;53.098;6.596;2022-08-21T11:10:47;6.80;;;2.08;;
52858;SDS011;38721;53.098;6.596;2022-08-21T11:13:19;8.13;;;2.10;;
52858;SDS011;38721;53.098;6.596;2022-08-21T11:15:56;5.10;;;2.00;;
52858;SDS011;38721;53.098;6.596;2022-08-21T11:18:39;4.45;;;1.65;;
52858;SDS011;38721;53.098;6.596;2022-08-21T11:23:43;5.82;;;1.77;;
52858;SDS011;38721;53.098;6.596;2022-08-21T11:26:21;8.32;;;2.08;;
52858;SDS011;38721;53.098;6.596;2022-08-21T11:29:03;6.85;;;2.00;;
52858;SDS011;38721;53.098;6.596;2022-08-21T11:34:33;3.00;;;1.60;;
52858;SDS011;38721;53.098;6.596;2022-08-21T11:40:04;4.82;;;2.30;;
52858;SDS011;38721;53.098;6.596;2022-08-21T11:42:57;7.15;;;2.00;;
52858;SDS011;38721;53.098;6.596;2022-08-21T11:45:32;5.10;;;2.17;;
52858;SDS011;38721;53.098;6.596;2022-08-21T11:51:16;6.88;;;2.60;;
52858;SDS011;38721;53.098;6.596;2022-08-21T11:53:48;6.07;;;2.60;;
52858;SDS011;38721;53.098;6.596;2022-08-21T11:56:33;8.48;;;2.50;;
52858;SDS011;38721;53.098;6.596;2022-08-21T11:59:10;8.65;;;2.70;;
52858;SDS011;38721;53.098;6.596;2022-08-21T12:01:43;5.38;;;2.20;;
52858;SDS011;38721;53.098;6.596;2022-08-21T12:04:18;9.52;;;2.63;;
52858;SDS011;38721;53.098;6.596;2022-08-21T12:06:47;7.05;;;2.20;;
52858;SDS011;38721;53.098;6.596;2022-08-21T12:14:41;5.53;;;2.05;;
52858;SDS011;38721;53.098;6.596;2022-08-21T12:17:15;6.88;;;2.30;;
52858;SDS011;38721;53.098;6.596;2022-08-21T12:19:56;4.25;;;2.28;;
52858;SDS011;38721;53.098;6.596;2022-08-21T12:22:39;6.93;;;2.20;;
52858;SDS011;38721;53.098;6.596;2022-08-21T12:25:08;6.25;;;2.22;;
52858;SDS011;38721;53.098;6.596;2022-08-21T12:27:45;8.48;;;2.60;;
52858;SDS011;38721;53.098;6.596;2022-08-21T12:35:38;6.32;;;2.25;;
52858;SDS011;38721;53.098;6.596;2022-08-21T12:38:14;6.45;;;2.28;;
52858;SDS011;38721;53.098;6.596;2022-08-21T12:41:05;6.35;;;2.20;;
52858;SDS011;38721;53.098;6.596;2022-08-21T12:43:39;6.05;;;1.90;;
52858;SDS011;38721;53.098;6.596;2022-08-21T12:46:14;5.60;;;1.98;;
52858;SDS011;38721;53.098;6.596;2022-08-21T12:51:34;7.72;;;2.05;;
52858;SDS011;38721;53.098;6.596;2022-08-21T12:54:08;5.78;;;1.90;;
52858;SDS011;38721;53.098;6.596;2022-08-21T12:56:34;7.60;;;2.20;;
52858;SDS011;38721;53.098;6.596;2022-08-21T12:59:05;7.88;;;2.00;;
52858;SDS011;38721;53.098;6.596;2022-08-21T13:01:46;8.07;;;2.40;;
52858;SDS011;38721;53.098;6.596;2022-08-21T13:04:18;5.38;;;2.13;;
52858;SDS011;38721;53.098;6.596;2022-08-21T13:06:48;5.88;;;1.90;;
52858;SDS011;38721;53.098;6.596;2022-08-21T13:09:18;8.52;;;2.30;;
52858;SDS011;38721;53.098;6.596;2022-08-21T13:11:48;8.43;;;2.47;;
52858;SDS011;38721;53.098;6.596;2022-08-21T13:14:35;6.68;;;2.35;;
52858;SDS011;38721;53.098;6.596;2022-08-21T13:17:06;9.70;;;2.45;;
52858;SDS011;38721;53.098;6.596;2022-08-21T13:19:33;7.28;;;2.30;;
52858;SDS011;38721;53.098;6.596;2022-08-21T13:22:00;7.88;;;2.35;;
52858;SDS011;38721;53.098;6.596;2022-08-21T13:24:30;6.60;;;2.20;;
52858;SDS011;38721;53.098;6.596;2022-08-21T13:26:59;8.52;;;2.50;;
52858;SDS011;38721;53.098;6.596;2022-08-21T13:29:30;7.13;;;2.20;;
52858;SDS011;38721;53.098;6.596;2022-08-21T13:32:00;5.22;;;2.03;;
52858;SDS011;38721;53.098;6.596;2022-08-21T13:34:30;5.32;;;1.98;;
52858;SDS011;38721;53.098;6.596;2022-08-21T13:37:06;3.67;;;1.77;;
52858;SDS011;38721;53.098;6.596;2022-08-21T13:39:33;5.93;;;1.88;;
52858;SDS011;38721;53.098;6.596;2022-08-21T13:42:04;6.18;;;2.00;;
52858;SDS011;38721;53.098;6.596;2022-08-21T13:44:40;7.10;;;2.67;;
52858;SDS011;38721;53.098;6.596;2022-08-21T13:47:09;5.85;;;2.00;;
52858;SDS011;38721;53.098;6.596;2022-08-21T13:49:40;6.30;;;2.10;;
52858;SDS011;38721;53.098;6.596;2022-08-21T13:52:15;4.70;;;1.83;;
52858;SDS011;38721;53.098;6.596;2022-08-21T13:54:56;10.82;;;2.50;;
52858;SDS011;38721;53.098;6.596;2022-08-21T13:57:31;5.68;;;1.90;;
52858;SDS011;38721;53.098;6.596;2022-08-21T14:02:46;6.28;;;2.00;;
52858;SDS011;38721;53.098;6.596;2022-08-21T14:05:36;4.43;;;1.85;;
52858;SDS011;38721;53.098;6.596;2022-08-21T14:08:11;5.60;;;1.92;;
52858;SDS011;38721;53.098;6.596;2022-08-21T14:10:48;6.70;;;2.00;;
52858;SDS011;38721;53.098;6.596;2022-08-21T14:13:30;4.55;;;1.75;;
52858;SDS011;38721;53.098;6.596;2022-08-21T14:16:03;6.20;;;2.10;;
52858;SDS011;38721;53.098;6.596;2022-08-21T14:24:01;4.68;;;1.88;;
52858;SDS011;38721;53.098;6.596;2022-08-21T14:26:37;5.50;;;1.80;;
52858;SDS011;38721;53.098;6.596;2022-08-21T14:29:15;5.15;;;1.75;;
52858;SDS011;38721;53.098;6.596;2022-08-21T14:31:48;5.05;;;1.88;;
52858;SDS011;38721;53.098;6.596;2022-08-21T14:34:20;7.40;;;2.08;;
52858;SDS011;38721;53.098;6.596;2022-08-21T14:36:47;7.85;;;2.20;;
52858;SDS011;38721;53.098;6.596;2022-08-21T14:39:13;4.22;;;1.58;;
52858;SDS011;38721;53.098;6.596;2022-08-21T14:41:39;6.13;;;1.77;;
52858;SDS011;38721;53.098;6.596;2022-08-21T14:44:05;7.85;;;2.13;;
52858;SDS011;38721;53.098;6.596;2022-08-21T14:46:34;6.47;;;2.08;;
52858;SDS011;38721;53.098;6.596;2022-08-21T14:49:04;6.13;;;1.70;;
52858;SDS011;38721;53.098;6.596;2022-08-21T14:51:30;5.03;;;1.77;;
52858;SDS011;38721;53.098;6.596;2022-08-21T14:53:56;4.18;;;1.48;;
52858;SDS011;38721;53.098;6.596;2022-08-21T14:56:22;5.63;;;1.60;;
52858;SDS011;38721;53.098;6.596;2022-08-21T14:58:49;3.90;;;1.63;;
52858;SDS011;38721;53.098;6.596;2022-08-21T15:01:16;6.35;;;1.85;;
52858;SDS011;38721;53.098;6.596;2022-08-21T15:03:44;6.03;;;2.05;;
52858;SDS011;38721;53.098;6.596;2022-08-21T15:06:11;5.88;;;1.50;;
52858;SDS011;38721;53.098;6.596;2022-08-21T15:08:37;4.22;;;1.60;;
52858;SDS011;38721;53.098;6.596;2022-08-21T15:11:06;3.83;;;1.67;;
52858;SDS011;38721;53.098;6.596;2022-08-21T15:13:33;5.55;;;1.83;;
52858;SDS011;38721;53.098;6.596;2022-08-21T15:16:00;5.93;;;1.75;;
52858;SDS011;38721;53.098;6.596;2022-08-21T15:18:27;3.03;;;1.60;;
52858;SDS011;38721;53.098;6.596;2022-08-21T15:20:54;5.18;;;1.80;;
52858;SDS011;38721;53.098;6.596;2022-08-21T15:23:20;5.60;;;1.92;;
52858;SDS011;38721;53.098;6.596;2022-08-21T15:25:46;4.65;;;1.80;;
52858;SDS011;38721;53.098;6.596;2022-08-21T15:28:15;4.22;;;1.90;;
52858;SDS011;38721;53.098;6.596;2022-08-21T15:30:43;3.17;;;1.75;;
52858;SDS011;38721;53.098;6.596;2022-08-21T15:33:09;5.68;;;1.83;;
52858;SDS011;38721;53.098;6.596;2022-08-21T15:35:36;3.55;;;1.75;;
52858;SDS011;38721;53.098;6.596;2022-08-21T15:38:02;4.70;;;2.10;;
52858;SDS011;38721;53.098;6.596;2022-08-21T15:40:28;5.97;;;1.73;;
52858;SDS011;38721;53.098;6.596;2022-08-21T15:42:56;4.03;;;1.50;;
52858;SDS011;38721;53.098;6.596;2022-08-21T15:45:23;4.40;;;1.70;;
52858;SDS011;38721;53.098;6.596;2022-08-21T15:47:50;7.00;;;1.67;;
52858;SDS011;38721;53.098;6.596;2022-08-21T15:50:16;4.93;;;1.75;;
52858;SDS011;38721;53.098;6.596;2022-08-21T15:52:42;4.85;;;1.92;;
52858;SDS011;38721;53.098;6.596;2022-08-21T15:55:09;4.45;;;1.60;;
52858;SDS011;38721;53.098;6.596;2022-08-21T15:57:35;4.80;;;1.73;;
52858;SDS011;38721;53.098;6.596;2022-08-21T16:00:04;4.28;;;1.73;;
52858;SDS011;38721;53.098;6.596;2022-08-21T16:02:39;6.28;;;2.05;;
52858;SDS011;38721;53.098;6.596;2022-08-21T16:05:07;4.20;;;1.70;;
52858;SDS011;38721;53.098;6.596;2022-08-21T16:07:35;5.95;;;1.90;;
52858;SDS011;38721;53.098;6.596;2022-08-21T16:10:02;5.55;;;1.90;;
52858;SDS011;38721;53.098;6.596;2022-08-21T16:12:30;4.57;;;1.65;;
52858;SDS011;38721;53.098;6.596;2022-08-21T16:15:01;5.82;;;1.60;;